createdAt,value
2022-11-10T00:01:40.770Z,100299.48
2022-11-10T00:04:26.216Z,100296.98
2022-11-10T00:07:12.179Z,100304.18
2022-11-10T00:09:58.137Z,100309.45
2022-11-10T00:12:48.314Z,100313.53
2022-11-10T00:15:56.737Z,100314.29
2022-11-10T00:18:42.321Z,100320.52
2022-11-10T00:21:27.896Z,100326.41
2022-11-10T00:24:13.556Z,100327.21
2022-11-10T00:26:59.675Z,100330.20
2022-11-10T00:29:45.573Z,100335.29
2022-11-10T00:32:31.021Z,100323.21
2022-11-10T00:35:16.510Z,100336.42
2022-11-10T00:38:02.027Z,100334.34
2022-11-10T00:40:48.055Z,100339.31
2022-11-10T00:43:34.208Z,100335.88
2022-11-10T00:46:20.172Z,100340.66
2022-11-10T00:49:05.756Z,100341.98
2022-11-10T00:51:51.541Z,100343.04
2022-11-10T00:54:38.263Z,100346.11
2022-11-10T00:57:23.845Z,100345.10
2022-11-10T01:00:10.775Z,100341.20
2022-11-10T01:02:57.274Z,100342.05
2022-11-10T01:05:43.516Z,100344.24
2022-11-10T01:08:28.740Z,100344.18
2022-11-10T01:11:17.896Z,100347.59
2022-11-10T01:14:03.689Z,100353.62
2022-11-10T01:16:49.324Z,100347.52
2022-11-10T01:19:34.560Z,100355.52
2022-11-10T01:22:20.364Z,100352.06
2022-11-10T01:25:07.651Z,100353.78
2022-11-10T01:27:53.165Z,100357.97
2022-11-10T01:30:38.720Z,100357.70
2022-11-10T01:33:24.247Z,100351.38
2022-11-10T01:36:11.098Z,100355.42
2022-11-10T01:38:56.796Z,100355.58
2022-11-10T01:41:42.177Z,100356.41
2022-11-10T01:44:27.791Z,100359.36
2022-11-10T01:47:13.231Z,100359.70
2022-11-10T01:49:58.960Z,100359.11
2022-11-10T01:52:48.088Z,100356.02
2022-11-10T01:55:36.640Z,100356.45
2022-11-10T01:58:28.194Z,100360.27
2022-11-10T02:01:14.533Z,100362.86
2022-11-10T02:04:07.918Z,100367.57
2022-11-10T02:06:54.483Z,100367.09
2022-11-10T02:09:40.264Z,100366.74
2022-11-10T02:12:38.300Z,100362.64
2022-11-10T02:15:24.196Z,100367.22
2022-11-10T02:18:09.775Z,100371.25
2022-11-10T02:20:55.545Z,100369.60
2022-11-10T02:23:44.722Z,100369.79
2022-11-10T02:26:31.135Z,100366.82
2022-11-10T02:29:16.696Z,100378.69
2022-11-10T02:32:02.183Z,100380.10
2022-11-10T02:34:47.584Z,100374.26
2022-11-10T02:37:33.239Z,100387.48
2022-11-10T02:40:19.113Z,100390.57
2022-11-10T02:43:08.030Z,100382.17
2022-11-10T02:45:53.320Z,100380.10
2022-11-10T02:48:38.945Z,100388.61
2022-11-10T02:51:24.638Z,100393.73
2022-11-10T02:54:10.110Z,100398.67
2022-11-10T02:56:55.704Z,100399.89
2022-11-10T02:59:41.191Z,100398.13
2022-11-10T03:02:31.997Z,100405.63
2022-11-10T03:05:17.664Z,100406.01
2022-11-10T03:08:04.179Z,100411.73
2022-11-10T03:10:53.134Z,100415.11
2022-11-10T03:13:59.028Z,100420.31
2022-11-10T03:16:43.964Z,100420.65
2022-11-10T03:19:29.744Z,100430.43
2022-11-10T03:22:15.437Z,100434.75
2022-11-10T03:25:00.920Z,100435.09
2022-11-10T03:27:46.162Z,100444.98
2022-11-10T03:30:31.777Z,100443.42
2022-11-10T03:33:17.098Z,100444.52
2022-11-10T03:36:02.513Z,100448.36
2022-11-10T03:38:48.214Z,100446.64
2022-11-10T03:41:33.789Z,100447.92
2022-11-10T03:44:19.686Z,100437.42
2022-11-10T03:47:05.673Z,100447.92
2022-11-10T03:49:51.353Z,100451.83
2022-11-10T03:52:39.504Z,100456.59
2022-11-10T03:55:24.778Z,100456.72
2022-11-10T03:58:10.182Z,100455.24
2022-11-10T04:00:56.139Z,100455.73
2022-11-10T04:03:41.724Z,100449.98
2022-11-10T04:06:45.936Z,100448.73
2022-11-10T04:09:31.496Z,100447.56
2022-11-10T04:12:35.751Z,100448.37
2022-11-10T04:15:39.764Z,100450.39
2022-11-10T04:18:25.141Z,100458.28
2022-11-10T04:21:11.851Z,100466.60
2022-11-10T04:23:57.428Z,100466.71
2022-11-10T04:26:44.343Z,100468.49
2022-11-10T04:29:29.616Z,100473.29
2022-11-10T04:32:15.405Z,100477.89
2022-11-10T04:35:00.655Z,100483.04
2022-11-10T04:37:47.068Z,100487.58
2022-11-10T04:40:33.317Z,100489.98
2022-11-10T04:43:18.984Z,100500.77
2022-11-10T04:46:07.339Z,100507.35
2022-11-10T04:48:54.128Z,100510.52
2022-11-10T04:51:39.845Z,100507.52
2022-11-10T04:54:25.299Z,100511.35
2022-11-10T04:57:12.124Z,100518.30
2022-11-10T04:59:57.986Z,100521.92
2022-11-10T05:02:43.566Z,100521.77
2022-11-10T05:05:30.492Z,100522.69
2022-11-10T05:08:16.275Z,100526.21
2022-11-10T05:11:02.441Z,100525.18
2022-11-10T05:13:48.144Z,100528.56
2022-11-10T05:16:34.251Z,100540.55
2022-11-10T05:19:20.136Z,100541.48
2022-11-10T05:22:07.087Z,100537.96
2022-11-10T05:24:52.945Z,100550.95
2022-11-10T05:27:38.827Z,100556.10
2022-11-10T05:30:24.616Z,100554.63
2022-11-10T05:33:11.004Z,100555.86
2022-11-10T05:35:57.001Z,100565.49
2022-11-10T05:38:43.886Z,100567.88
2022-11-10T05:41:29.591Z,100575.11
2022-11-10T05:44:15.386Z,100582.70
2022-11-10T05:47:00.969Z,100583.29
2022-11-10T05:49:46.645Z,100589.20
2022-11-10T05:52:33.280Z,100595.51
2022-11-10T05:55:23.140Z,100600.02
2022-11-10T05:58:08.674Z,100603.48
2022-11-10T06:00:54.007Z,100601.26
2022-11-10T06:03:39.629Z,100611.61
2022-11-10T06:06:25.265Z,100619.84
2022-11-10T06:09:10.980Z,100623.66
2022-11-10T06:11:56.671Z,100631.52
2022-11-10T06:14:42.439Z,100637.48
2022-11-10T06:17:28.324Z,100644.45
2022-11-10T06:20:16.579Z,100660.44
2022-11-10T06:23:12.706Z,100663.67
2022-11-10T06:25:58.259Z,100667.06
2022-11-10T06:28:43.743Z,100671.72
2022-11-10T06:31:29.844Z,100678.77
2022-11-10T06:34:15.745Z,100681.14
2022-11-10T06:37:01.316Z,100683.02
2022-11-10T06:39:47.101Z,100689.91
2022-11-10T06:42:34.340Z,100696.29
2022-11-10T06:45:20.739Z,100701.63
2022-11-10T06:48:11.671Z,100706.02
2022-11-10T06:51:01.314Z,100714.91
2022-11-10T06:53:47.200Z,100717.79
2022-11-10T06:56:33.304Z,100722.50
2022-11-10T06:59:19.293Z,100725.86
2022-11-10T07:02:04.777Z,100724.50
2022-11-10T07:04:50.445Z,100731.21
2022-11-10T07:07:36.065Z,100738.96
2022-11-10T07:10:21.829Z,100741.22
2022-11-10T07:13:08.937Z,100747.81
2022-11-10T07:15:54.940Z,100757.20
2022-11-10T07:18:42.449Z,100758.42
2022-11-10T07:21:33.250Z,100762.33
2022-11-10T07:24:21.715Z,100769.30
2022-11-10T07:27:08.226Z,100776.90
2022-11-10T07:29:57.800Z,100765.65
2022-11-10T07:32:43.875Z,100788.85
2022-11-10T07:35:31.715Z,100796.48
2022-11-10T07:38:17.725Z,100796.94
2022-11-10T07:41:03.508Z,100801.07
2022-11-10T07:43:49.102Z,100805.97
2022-11-10T07:46:34.983Z,100808.27
2022-11-10T07:49:21.183Z,100814.14
2022-11-10T07:52:06.758Z,100817.70
2022-11-10T07:54:52.457Z,100819.86
2022-11-10T07:57:38.279Z,100824.35
2022-11-10T08:00:24.521Z,100826.42
2022-11-10T08:03:11.502Z,100829.94
2022-11-10T08:05:57.125Z,100836.24
2022-11-10T08:08:43.016Z,100837.92
2022-11-10T08:11:29.002Z,100837.36
2022-11-10T08:14:15.225Z,100843.52
2022-11-10T08:17:02.369Z,100846.88
2022-11-10T08:19:49.044Z,100851.67
2022-11-10T08:22:35.237Z,100858.13
2022-11-10T08:25:21.204Z,100861.10
2022-11-10T08:28:16.632Z,100866.77
2022-11-10T08:31:05.695Z,100868.91
2022-11-10T08:33:52.305Z,100872.82
2022-11-10T08:36:37.880Z,100878.11
2022-11-10T08:39:38.149Z,100886.66
2022-11-10T08:42:25.047Z,100888.48
2022-11-10T08:45:11.215Z,100889.17
2022-11-10T08:48:02.194Z,100890.81
2022-11-10T08:50:51.821Z,100898.36
2022-11-10T08:53:38.428Z,100897.38
2022-11-10T08:56:24.090Z,100906.08
2022-11-10T08:59:10.592Z,100915.56
2022-11-10T09:01:57.302Z,100916.98
2022-11-10T09:04:42.938Z,100924.41
2022-11-10T09:07:30.626Z,100932.58
2022-11-10T09:10:16.827Z,100936.30
2022-11-10T09:13:04.137Z,100941.91
2022-11-10T09:15:50.131Z,100933.56
2022-11-10T09:18:36.016Z,100948.27
2022-11-10T09:21:21.766Z,100949.73
2022-11-10T09:24:08.100Z,100955.41
2022-11-10T09:26:54.099Z,100953.53
2022-11-10T09:29:39.768Z,100960.13
2022-11-10T09:32:25.669Z,100964.37
2022-11-10T09:35:13.201Z,100968.13
2022-11-10T09:37:59.290Z,100971.33
2022-11-10T09:40:50.226Z,100976.33
2022-11-10T09:44:07.830Z,100975.89
2022-11-10T09:46:59.954Z,100978.16
2022-11-10T09:49:58.655Z,100977.71
2022-11-10T09:52:47.186Z,100976.63
2022-11-10T09:56:01.988Z,100982.08
2022-11-10T09:58:48.273Z,100975.30
2022-11-10T10:01:51.085Z,100977.99
2022-11-10T10:04:53.534Z,100978.71
2022-11-10T10:07:52.453Z,100981.40
2022-11-10T10:10:58.177Z,100988.98
2022-11-10T10:13:48.591Z,100987.73
2022-11-10T10:16:44.504Z,100990.29
2022-11-10T10:20:05.432Z,100989.71
2022-11-10T10:23:01.061Z,100990.55
2022-11-10T10:25:52.477Z,100995.69
2022-11-10T10:28:42.902Z,100994.38
2022-11-10T10:31:56.512Z,101002.70
2022-11-10T10:34:45.569Z,100996.95
2022-11-10T10:37:33.005Z,101001.61
2022-11-10T10:40:24.004Z,101002.31
2022-11-10T10:43:09.475Z,100999.41
2022-11-10T10:46:08.919Z,100994.31
2022-11-10T10:49:30.113Z,100996.52
2022-11-10T10:52:19.794Z,100996.12
2022-11-10T10:55:07.815Z,100998.05
2022-11-10T10:58:00.457Z,101005.46
2022-11-10T11:00:51.274Z,101000.02
2022-11-10T11:03:49.620Z,101004.45
2022-11-10T11:06:36.026Z,101008.23
2022-11-10T11:09:38.525Z,101009.55
2022-11-10T11:12:32.609Z,101014.33
2022-11-10T11:15:29.964Z,101016.66
2022-11-10T11:18:19.949Z,101017.27
2022-11-10T11:21:08.712Z,101018.41
2022-11-10T11:24:00.963Z,101017.65
2022-11-10T11:27:33.530Z,101019.88
2022-11-10T11:30:20.937Z,101022.88
2022-11-10T11:33:16.058Z,101022.83
2022-11-10T11:36:01.538Z,101027.43
2022-11-10T11:39:34.843Z,101020.63
2022-11-10T11:42:49.085Z,101014.68
2022-11-10T11:46:01.920Z,101019.86
2022-11-10T11:48:55.792Z,101022.64
2022-11-10T11:52:03.494Z,101026.29
2022-11-10T11:55:10.674Z,101030.96
2022-11-10T11:58:24.533Z,101031.43
2022-11-10T12:01:29.561Z,101035.12
2022-11-10T12:04:24.781Z,101041.49
2022-11-10T12:07:25.721Z,101036.10
2022-11-10T12:10:33.829Z,101037.93
2022-11-10T12:13:34.683Z,101038.14
2022-11-10T12:16:28.080Z,101034.17
2022-11-10T12:19:42.084Z,101038.77
2022-11-10T12:22:42.890Z,101044.40
2022-11-10T12:26:05.982Z,101041.88
2022-11-10T12:29:00.570Z,101046.31
2022-11-10T12:31:50.362Z,101052.52
2022-11-10T12:34:43.645Z,101052.72
2022-11-10T12:37:38.497Z,101054.48
2022-11-10T12:40:24.216Z,101060.33
2022-11-10T12:43:38.560Z,101058.63
2022-11-10T12:46:24.165Z,101069.90
2022-11-10T12:49:44.633Z,101070.98
2022-11-10T12:52:41.378Z,101072.33
2022-11-10T12:55:41.404Z,101082.05
2022-11-10T12:58:28.420Z,101083.63
2022-11-10T13:01:18.804Z,101083.23
2022-11-10T13:04:05.414Z,101082.95
2022-11-10T13:06:56.902Z,101083.81
2022-11-10T13:09:44.787Z,101087.46
2022-11-10T13:12:31.405Z,101088.48
2022-11-10T13:15:39.495Z,101094.85
2022-11-10T13:18:31.734Z,101099.79
2022-11-10T13:21:17.948Z,101103.55
2022-11-10T13:24:03.918Z,101108.16
2022-11-10T13:27:01.488Z,101111.23
2022-11-10T13:29:47.488Z,101113.66
2022-11-10T13:32:35.014Z,101111.00
2022-11-10T13:35:27.885Z,101119.21
2022-11-10T13:38:31.982Z,101126.40
2022-11-10T13:41:27.804Z,101128.36
2022-11-10T13:44:27.020Z,101128.52
2022-11-10T13:47:34.488Z,101134.34
2022-11-10T13:50:29.496Z,101139.35
2022-11-10T13:53:34.146Z,101133.06
2022-11-10T13:56:44.498Z,101120.82
2022-11-10T13:59:32.843Z,101139.39
2022-11-10T14:02:38.719Z,101143.00
2022-11-10T14:05:29.200Z,101150.11
2022-11-10T14:08:24.144Z,101146.73
2022-11-10T14:11:19.805Z,101150.54
2022-11-10T14:14:14.542Z,101149.48
2022-11-10T14:17:01.219Z,101154.77
2022-11-10T14:19:47.317Z,101162.67
2022-11-10T14:22:40.474Z,101164.76
2022-11-10T14:25:35.677Z,101173.08
2022-11-10T14:28:30.466Z,101175.98
2022-11-10T14:31:20.876Z,101159.60
2022-11-10T14:34:14.747Z,101179.59
2022-11-10T14:37:02.988Z,101186.34
2022-11-10T14:39:54.823Z,101187.32
2022-11-10T14:42:41.016Z,101191.52
2022-11-10T14:45:28.138Z,101197.42
2022-11-10T14:48:19.763Z,101198.61
2022-11-10T14:51:16.516Z,101201.96
2022-11-10T14:54:02.512Z,101201.81
2022-11-10T14:56:49.000Z,101206.23
2022-11-10T14:59:37.335Z,101215.37
2022-11-10T15:02:25.080Z,101219.98
2022-11-10T15:05:15.474Z,101222.27
2022-11-10T15:08:04.053Z,101225.70
2022-11-10T15:10:52.778Z,101233.16
2022-11-10T15:13:39.291Z,101236.46
2022-11-10T15:16:25.388Z,101243.85
2022-11-10T15:19:27.160Z,101248.75
2022-11-10T15:22:17.630Z,101248.37
2022-11-10T15:25:20.042Z,101248.64
2022-11-10T15:28:11.940Z,101252.46
2022-11-10T15:31:05.004Z,101258.73
2022-11-10T15:33:54.282Z,101258.07
2022-11-10T15:36:41.286Z,101265.44
2022-11-10T15:39:27.643Z,101264.99
2022-11-10T15:42:25.553Z,101269.23
2022-11-10T15:45:11.439Z,101273.86
2022-11-10T15:47:57.432Z,101280.13
2022-11-10T15:50:50.404Z,101281.40
2022-11-10T15:53:44.582Z,101287.11
2022-11-10T15:56:30.879Z,101295.66
2022-11-10T15:59:18.042Z,101293.00
2022-11-10T16:02:30.934Z,101296.91
2022-11-10T16:05:17.120Z,101311.52
2022-11-10T16:08:03.210Z,101317.64
2022-11-10T16:10:52.273Z,101323.27
2022-11-10T16:13:38.171Z,101327.81
2022-11-10T16:16:24.403Z,101334.05
2022-11-10T16:19:11.268Z,101338.66
2022-11-10T16:21:57.468Z,101344.20
2022-11-10T16:24:43.670Z,101348.33
2022-11-10T16:27:29.901Z,101359.38
2022-11-10T16:30:16.366Z,101367.23
2022-11-10T16:33:02.864Z,101370.41
2022-11-10T16:35:50.915Z,101375.15
2022-11-10T16:38:37.268Z,101375.91
2022-11-10T16:41:23.829Z,101376.61
2022-11-10T16:44:15.039Z,101382.39
2022-11-10T16:47:01.746Z,101387.55
2022-11-10T16:49:49.884Z,101394.63
2022-11-10T16:52:35.558Z,101396.03
2022-11-10T16:55:22.064Z,101402.76
2022-11-10T16:58:08.582Z,101403.77
2022-11-10T17:00:58.770Z,101408.71
2022-11-10T17:03:48.081Z,101411.59
2022-11-10T17:06:35.606Z,101411.17
2022-11-10T17:09:25.856Z,101416.05
2022-11-10T17:12:14.283Z,101422.39
2022-11-10T17:15:00.424Z,101419.18
2022-11-10T17:17:51.682Z,101421.58
2022-11-10T17:20:40.701Z,101423.79
2022-11-10T17:23:28.741Z,101423.46
2022-11-10T17:26:18.916Z,101422.27
2022-11-10T17:29:07.363Z,101420.52
2022-11-10T17:31:57.125Z,101416.02
2022-11-10T17:34:45.012Z,101420.56
2022-11-10T17:37:32.611Z,101418.92
2022-11-10T17:40:22.787Z,101413.15
2022-11-10T17:43:11.981Z,101411.67
2022-11-10T17:45:58.387Z,101413.83
2022-11-10T17:48:47.228Z,101410.55
2022-11-10T17:51:36.588Z,101409.27
2022-11-10T17:54:26.495Z,101406.04
2022-11-10T17:57:12.664Z,101411.26
2022-11-10T17:59:59.352Z,101415.18
2022-11-10T18:02:54.941Z,101416.12
2022-11-10T18:05:42.895Z,101420.17
2022-11-10T18:08:29.329Z,101418.88
2022-11-10T18:11:18.783Z,101420.46
2022-11-10T18:14:11.798Z,101420.14
2022-11-10T18:16:58.364Z,101424.12
2022-11-10T18:19:46.462Z,101425.81
2022-11-10T18:22:32.387Z,101425.01
2022-11-10T18:25:19.928Z,101429.20
2022-11-10T18:28:08.763Z,101435.52
2022-11-10T18:30:55.388Z,101433.58
2022-11-10T18:33:43.468Z,101435.67
2022-11-10T18:36:31.926Z,101438.08
2022-11-10T18:39:19.811Z,101446.17
2022-11-10T18:42:05.910Z,101449.05
2022-11-10T18:44:54.586Z,101451.08
2022-11-10T18:47:43.751Z,101454.50
2022-11-10T18:50:33.988Z,101456.56
2022-11-10T18:53:23.515Z,101462.75
2022-11-10T18:56:11.115Z,101462.39
2022-11-10T18:58:58.865Z,101468.76
2022-11-10T19:01:46.126Z,101471.70
2022-11-10T19:04:34.798Z,101472.73
2022-11-10T19:07:22.692Z,101480.96
2022-11-10T19:10:11.014Z,101486.56
2022-11-10T19:12:58.566Z,101487.09
2022-11-10T19:15:44.953Z,101493.38
2022-11-10T19:18:31.463Z,101491.73
2022-11-10T19:21:22.768Z,101488.80
2022-11-10T19:24:10.495Z,101489.87
2022-11-10T19:26:58.139Z,101496.13
2022-11-10T19:29:45.574Z,101501.04
2022-11-10T19:32:35.461Z,101500.80
2022-11-10T19:35:25.427Z,101503.91
2022-11-10T19:38:12.661Z,101506.15
2022-11-10T19:41:08.045Z,101508.46
2022-11-10T19:43:55.734Z,101509.34
2022-11-10T19:46:44.595Z,101511.96
2022-11-10T19:49:31.981Z,101508.27
2022-11-10T19:52:18.063Z,101517.42
2022-11-10T19:55:06.370Z,101522.93
2022-11-10T19:57:53.243Z,101526.48
2022-11-10T20:00:40.674Z,101533.02
2022-11-10T20:03:28.894Z,101541.11
2022-11-10T20:06:19.604Z,101541.10
2022-11-10T20:09:06.622Z,101537.91
2022-11-10T20:11:54.168Z,101537.69
2022-11-10T20:14:42.375Z,101533.45
2022-11-10T20:17:29.155Z,101510.03
2022-11-10T20:20:16.641Z,101536.43
2022-11-10T20:23:05.568Z,101537.98
2022-11-10T20:26:02.304Z,101536.77
2022-11-10T20:28:48.684Z,101532.20
2022-11-10T20:31:36.696Z,101527.75
2022-11-10T20:34:24.671Z,101529.50
2022-11-10T20:37:11.578Z,101527.52
2022-11-10T20:39:58.719Z,101528.20
2022-11-10T20:42:46.706Z,101531.27
2022-11-10T20:45:34.233Z,101531.16
2022-11-10T20:48:21.206Z,101529.28
2022-11-10T20:51:19.165Z,101512.32
2022-11-10T20:54:06.183Z,101534.96
2022-11-10T20:56:53.801Z,101544.59
2022-11-10T20:59:42.376Z,101545.10
2022-11-10T21:02:28.896Z,101539.95
2022-11-10T21:05:17.937Z,101535.63
2022-11-10T21:08:07.093Z,101532.73
2022-11-10T21:11:01.084Z,101535.35
2022-11-10T21:13:49.667Z,101541.81
2022-11-10T21:16:36.908Z,101547.14
2022-11-10T21:19:23.575Z,101548.17
2022-11-10T21:22:11.226Z,101542.61
2022-11-10T21:24:58.820Z,101541.53
2022-11-10T21:27:45.616Z,101542.84
2022-11-10T21:30:31.778Z,101542.94
2022-11-10T21:33:19.443Z,101541.00
2022-11-10T21:36:08.801Z,101544.31
2022-11-10T21:38:59.485Z,101542.06
2022-11-10T21:41:45.619Z,101540.94
2022-11-10T21:44:32.538Z,101540.27
2022-11-10T21:47:22.514Z,101543.13
2022-11-10T21:50:08.814Z,101537.92
2022-11-10T21:52:55.302Z,101532.11
2022-11-10T21:55:42.440Z,101531.31
2022-11-10T21:58:30.084Z,101510.86
2022-11-10T22:01:18.906Z,101530.65
2022-11-10T22:04:05.434Z,101536.33
2022-11-10T22:07:10.085Z,101539.49
2022-11-10T22:10:16.651Z,101537.92
2022-11-10T22:13:22.285Z,101528.88
2022-11-10T22:16:56.814Z,101552.50
2022-11-10T22:19:44.227Z,101548.98
2022-11-10T22:22:31.189Z,101549.86
2022-11-10T22:25:17.865Z,101550.77
2022-11-10T22:28:05.379Z,101555.57
2022-11-10T22:30:50.960Z,101557.90
2022-11-10T22:33:38.798Z,101551.11
2022-11-10T22:36:25.536Z,101567.27
2022-11-10T22:39:12.464Z,101568.41
2022-11-10T22:42:16.238Z,101570.83
2022-11-10T22:45:02.023Z,101575.35
2022-11-10T22:48:06.045Z,101579.91
2022-11-10T22:50:59.659Z,101585.66
2022-11-10T22:53:45.489Z,101592.27
2022-11-10T22:56:32.610Z,101594.41
2022-11-10T22:59:19.871Z,101597.89
2022-11-10T23:02:06.240Z,101601.69
2022-11-10T23:04:52.674Z,101604.64
2022-11-10T23:07:40.240Z,101614.57
2022-11-10T23:10:26.977Z,101621.89
2022-11-10T23:13:14.030Z,101624.52
2022-11-10T23:16:02.335Z,101623.59
2022-11-10T23:18:49.658Z,101626.92
2022-11-10T23:21:35.142Z,101632.81
2022-11-10T23:24:23.987Z,101635.32
2022-11-10T23:27:09.393Z,101634.65
2022-11-10T23:29:54.908Z,101636.86
2022-11-10T23:32:40.533Z,101636.25
2022-11-10T23:35:26.221Z,101634.29
2022-11-10T23:38:12.010Z,101640.02
2022-11-10T23:40:59.027Z,101643.27
2022-11-10T23:43:44.908Z,101640.05
2022-11-10T23:46:30.489Z,101646.10
2022-11-10T23:49:15.875Z,101643.29
2022-11-10T23:52:01.484Z,101644.19
2022-11-10T23:54:47.359Z,101651.14
2022-11-10T23:57:33.920Z,101647.27
